Airfield :
LOGIN :

Register | Disclaimer

   EN    FR    IT 

 










Legend :    VFR   Marginal VFR   IFR   Intensive IFR   Very Intensive IFR
Visi :
Ceiling :
>= 8 km
>= 3000ft
5 to 8 km
1000 to 3000 ft
1500m to 5 km
500 to 1000 ft
800 to 1500m
200 to 500 ft
< 800m
< 200 ft
Symbols :   Thunderstorms  Fog  Heavy snow  Heavy precipitations  Wind > 20 kt
SIGMETs :     Misc.  Thunderstorms  Icing  Turbulence  Mountain Waves  Volcanic Ashes







- Airport Elevation : 42 ft
- IATA code : CAL
- Download approach charts


EGEC - Campbeltown

CURRENT METAR :
  • 171450Z 26004KT 9999 FEW030 BKN048 16/08 Q1013

EXPIRED METARs :
  • 171420Z 28004KT 9999 FEW030 BKN046 15/10 Q1014
  • 171350Z 28006KT 9999 FEW030 BKN048 15/10 Q1014
  • 171320Z 28006KT 9999 FEW030 BKN048 16/09 Q1013
  • 171250Z 27006KT 9999 FEW030 BKN048 16/08 Q1013
  • 171220Z 28007KT 9999 FEW030 BKN048 15/08 Q1013

TAF TAF EGEC
Valid from the 17 at 15:00 until the 17 at 17:00 UTC


171356Z 1715/1717 26007KT 9999 SCT045
No reported NOTAMs for that airfield.
1 SIGMET reported for the Scottish FIR (EGPX) :
 
Embedded thunderstorms
EGPX SIGMET 04 VALID 171230/171630 EGRR
EGPX SCOTTISH FIR EMBD TS FCST WI N5818 E00201 - N5713 E00356 - N5557 E00323 - N5712 E00126 - N5818 E00201 TOP FL280 MOV N 20KT NC=



MET'MAP, your aeronautical weather chart ! - Copyright ORBIFLY December 2007 - Disclaimer

ORBIFLY MET'MAP TEAM :

Programming & Development : Alexandra Zaïnal
Concept & Development : Baudouin d'Aumeries
Co-Development & Prog : Marc-Olivier Méhu
Technical & hardware support : Manuel Goepfert

Contact : metmap@orbifly.com




SOURCES & CREDITS :

   NOAA